createdAt,value
2019-06-26T00:01:42.194Z,68.05
2019-06-26T00:04:12.207Z,55.55
2019-06-26T00:06:42.224Z,57.40
2019-06-26T00:09:12.300Z,57.13
2019-06-26T00:11:42.304Z,51.85
2019-06-26T00:14:12.431Z,54.93
2019-06-26T00:16:42.403Z,43.55
2019-06-26T00:19:12.413Z,38.95
2019-06-26T00:21:42.453Z,37.00
2019-06-26T00:24:12.428Z,46.83
2019-06-26T00:26:42.459Z,39.30
2019-06-26T00:29:12.525Z,44.45
2019-06-26T00:31:42.647Z,52.23
2019-06-26T00:34:13.081Z,44.67
2019-06-26T00:36:42.588Z,52.75
2019-06-26T00:39:12.666Z,53.75
2019-06-26T00:41:43.185Z,50.10
2019-06-26T00:44:12.772Z,51.02
2019-06-26T00:46:44.981Z,43.15
2019-06-26T00:49:15.031Z,51.35
2019-06-26T00:51:44.440Z,52.33
2019-06-26T00:54:13.769Z,58.83
2019-06-26T00:56:43.115Z,51.02
2019-06-26T00:59:12.978Z,60.33
2019-06-26T01:01:44.571Z,57.98
2019-06-26T01:04:18.075Z,65.42
2019-06-26T01:06:47.496Z,73.90
2019-06-26T01:09:25.299Z,72.72
2019-06-26T01:11:55.432Z,69.72
2019-06-26T01:14:24.768Z,66.72
2019-06-26T01:16:54.266Z,79.50
2019-06-26T01:19:24.340Z,71.57
2019-06-26T01:21:54.427Z,69.10
2019-06-26T01:24:23.808Z,80.83
2019-06-26T01:26:53.214Z,71.73
2019-06-26T01:29:22.659Z,79.97
2019-06-26T01:31:52.955Z,79.40
2019-06-26T01:34:25.046Z,83.40
2019-06-26T01:36:56.341Z,80.60
2019-06-26T01:41:58.016Z,80.40
2019-06-26T01:44:29.349Z,75.97
2019-06-26T01:49:28.814Z,75.57
2019-06-26T01:51:58.197Z,70.62
2019-06-26T01:54:29.155Z,71.22
2019-06-26T01:56:58.521Z,67.37
2019-06-26T01:59:27.938Z,71.57
2019-06-26T02:01:57.260Z,64.05
2019-06-26T02:04:27.527Z,73.30
2019-06-26T02:06:56.864Z,65.32
2019-06-26T02:09:26.209Z,63.80
2019-06-26T02:11:55.595Z,61.92
2019-06-26T02:14:31.191Z,72.50
2019-06-26T02:16:55.945Z,74.22
2019-06-26T02:19:25.272Z,72.70
2019-06-26T02:21:54.580Z,72.53
2019-06-26T02:24:23.884Z,73.62
2019-06-26T02:26:53.193Z,74.10
2019-06-26T02:29:22.514Z,75.45
2019-06-26T02:31:51.881Z,73.47
2019-06-26T02:34:21.274Z,76.97
2019-06-26T02:36:50.602Z,69.60
2019-06-26T02:39:19.938Z,76.35
2019-06-26T02:41:49.274Z,64.90
2019-06-26T02:44:18.591Z,71.65
2019-06-26T02:46:48.461Z,67.95
2019-06-26T02:49:18.546Z,64.12
2019-06-26T02:51:48.679Z,63.70
2019-06-26T02:54:18.945Z,70.15
2019-06-26T02:56:49.050Z,66.70
2019-06-26T02:59:19.151Z,67.12
2019-06-26T03:01:49.284Z,60.55
2019-06-26T03:04:19.568Z,70.42
2019-06-26T03:06:49.602Z,62.78
2019-06-26T03:09:19.859Z,64.53
2019-06-26T03:11:49.904Z,64.20
2019-06-26T03:14:20.133Z,63.35
2019-06-26T03:16:50.212Z,69.58
2019-06-26T03:19:20.459Z,65.55
2019-06-26T03:21:50.568Z,69.42
2019-06-26T03:24:20.713Z,66.82
2019-06-26T03:26:50.816Z,77.08
2019-06-26T03:29:21.074Z,76.95
2019-06-26T03:31:51.121Z,66.70
2019-06-26T03:34:21.364Z,72.62
2019-06-26T03:36:51.583Z,66.60
2019-06-26T03:39:21.648Z,67.50
2019-06-26T03:41:51.755Z,67.00
2019-06-26T03:44:22.008Z,67.08
2019-06-26T03:46:52.043Z,71.50
2019-06-26T03:49:22.243Z,64.30
2019-06-26T03:51:52.390Z,65.67
2019-06-26T03:54:22.815Z,64.40
2019-06-26T03:56:52.662Z,66.35
2019-06-26T03:59:22.896Z,62.45
2019-06-26T04:01:52.956Z,73.45
2019-06-26T04:04:23.213Z,64.22
2019-06-26T04:06:52.525Z,74.73
2019-06-26T04:09:21.870Z,68.95
2019-06-26T04:11:51.163Z,67.40
2019-06-26T04:14:20.528Z,67.97
2019-06-26T04:16:49.890Z,67.87
2019-06-26T04:19:19.296Z,67.32
2019-06-26T04:21:48.618Z,76.65
2019-06-26T04:24:18.351Z,75.90
2019-06-26T04:26:51.004Z,69.35
2019-06-26T04:29:20.573Z,74.90
2019-06-26T04:31:49.965Z,78.53
2019-06-26T04:34:19.303Z,78.33
2019-06-26T04:36:48.614Z,79.85
2019-06-26T04:39:17.926Z,84.28
2019-06-26T04:41:47.315Z,85.03
2019-06-26T04:44:16.665Z,93.25
2019-06-26T04:46:46.161Z,78.80
2019-06-26T04:49:15.479Z,88.58
2019-06-26T04:51:44.919Z,91.02
2019-06-26T04:54:14.234Z,86.23
2019-06-26T04:56:43.543Z,86.87
2019-06-26T04:59:12.856Z,88.03
2019-06-26T05:01:42.190Z,98.47
2019-06-26T05:04:11.527Z,91.63
2019-06-26T05:06:40.818Z,93.30
2019-06-26T05:09:10.198Z,97.67
2019-06-26T05:11:39.530Z,89.80
2019-06-26T05:14:08.846Z,84.83
2019-06-26T05:16:38.197Z,91.43
2019-06-26T05:19:07.495Z,93.78
2019-06-26T05:21:38.494Z,92.60
2019-06-26T05:24:07.833Z,93.87
2019-06-26T05:26:37.164Z,91.35
2019-06-26T05:29:06.549Z,96.17
2019-06-26T05:31:35.874Z,95.62
2019-06-26T05:34:05.198Z,101.87
2019-06-26T05:36:35.191Z,97.27
2019-06-26T05:39:06.786Z,114.60
2019-06-26T05:44:06.214Z,103.50
2019-06-26T05:46:35.615Z,94.55
2019-06-26T05:49:05.040Z,102.78
2019-06-26T05:51:34.368Z,113.47
2019-06-26T05:54:03.886Z,102.22
2019-06-26T05:56:33.203Z,102.55
2019-06-26T05:59:02.609Z,101.10
2019-06-26T06:01:33.208Z,108.87
2019-06-26T06:04:02.545Z,108.70
2019-06-26T06:06:41.223Z,105.55
2019-06-26T06:09:04.682Z,108.87
2019-06-26T06:11:34.035Z,111.22
2019-06-26T06:14:03.515Z,108.47
2019-06-26T06:16:46.311Z,114.72
2019-06-26T06:19:03.950Z,112.40
2019-06-26T06:21:33.294Z,111.90
2019-06-26T06:24:02.594Z,108.97
2019-06-26T06:26:32.008Z,109.65
2019-06-26T06:29:02.992Z,119.53
2019-06-26T06:31:32.399Z,115.72
2019-06-26T06:34:02.533Z,111.62
2019-06-26T06:36:32.770Z,114.85
2019-06-26T06:39:02.790Z,115.25
2019-06-26T06:41:33.686Z,116.55
2019-06-26T06:44:03.092Z,110.75
2019-06-26T06:46:33.325Z,116.80
2019-06-26T06:49:03.425Z,118.25
2019-06-26T06:51:33.659Z,121.25
2019-06-26T06:54:03.790Z,109.10
2019-06-26T06:56:33.930Z,117.55
2019-06-26T06:59:04.147Z,112.50
2019-06-26T07:01:34.296Z,110.35
2019-06-26T07:04:04.728Z,110.60
2019-06-26T07:06:34.546Z,104.07
2019-06-26T07:09:06.621Z,105.40
2019-06-26T07:11:35.924Z,110.35
2019-06-26T07:14:05.468Z,111.83
2019-06-26T07:16:35.180Z,112.20
2019-06-26T07:19:05.304Z,105.32
2019-06-26T07:21:35.559Z,114.80
2019-06-26T07:24:05.655Z,116.40
2019-06-26T07:26:35.887Z,106.87
2019-06-26T07:29:05.962Z,108.92
2019-06-26T07:31:38.438Z,101.25
2019-06-26T07:34:07.330Z,103.42
2019-06-26T07:36:36.677Z,112.70
2019-06-26T07:39:09.870Z,99.37
2019-06-26T07:41:39.196Z,99.75
2019-06-26T07:44:08.523Z,92.45
2019-06-26T07:46:37.828Z,103.70
2019-06-26T07:49:07.374Z,99.07
2019-06-26T07:51:37.596Z,96.00
2019-06-26T07:54:07.879Z,101.20
2019-06-26T07:56:37.890Z,104.53
2019-06-26T07:59:08.026Z,100.80
2019-06-26T08:01:38.283Z,114.70
2019-06-26T08:04:08.388Z,96.82
2019-06-26T08:06:38.631Z,97.47
2019-06-26T08:09:08.768Z,106.17
2019-06-26T08:11:38.968Z,101.75
2019-06-26T08:14:09.020Z,97.72
2019-06-26T08:16:39.360Z,98.97
2019-06-26T08:19:09.350Z,101.05
2019-06-26T08:21:39.826Z,100.18
2019-06-26T08:24:09.637Z,98.37
2019-06-26T08:26:39.866Z,98.85
2019-06-26T08:29:09.943Z,101.50
2019-06-26T08:31:40.186Z,92.00
2019-06-26T08:34:10.436Z,93.70
2019-06-26T08:36:40.479Z,84.07
2019-06-26T08:39:10.575Z,93.80
2019-06-26T08:41:40.806Z,97.10
2019-06-26T08:44:10.901Z,92.25
2019-06-26T08:46:41.154Z,89.28
2019-06-26T08:49:25.017Z,89.87
2019-06-26T08:51:42.300Z,84.13
2019-06-26T08:54:11.611Z,87.60
2019-06-26T08:56:41.849Z,79.90
2019-06-26T08:59:11.827Z,77.25
2019-06-26T09:01:42.059Z,78.40
2019-06-26T09:04:12.145Z,77.50
2019-06-26T09:06:42.509Z,76.50
2019-06-26T09:09:12.467Z,82.82
2019-06-26T09:11:42.697Z,83.47
2019-06-26T09:14:12.787Z,84.95
2019-06-26T09:16:43.107Z,76.30
2019-06-26T09:19:13.109Z,88.10
2019-06-26T09:21:43.326Z,78.67
2019-06-26T09:24:13.434Z,77.12
2019-06-26T09:26:43.656Z,75.00
2019-06-26T09:29:13.766Z,77.75
2019-06-26T09:31:44.009Z,76.10
2019-06-26T09:34:14.073Z,73.10
2019-06-26T09:36:44.312Z,71.00
2019-06-26T09:39:14.379Z,71.75
2019-06-26T09:41:44.603Z,73.12
2019-06-26T09:44:14.712Z,77.30
2019-06-26T09:46:44.969Z,80.42
2019-06-26T09:49:14.999Z,74.07
2019-06-26T09:51:45.280Z,76.23
2019-06-26T09:54:15.318Z,68.50
2019-06-26T09:56:45.538Z,73.40
2019-06-26T09:59:15.662Z,72.20
2019-06-26T10:01:45.917Z,77.92
2019-06-26T10:04:16.006Z,78.25
2019-06-26T10:06:46.120Z,81.97
2019-06-26T10:09:16.263Z,69.92
2019-06-26T10:11:46.384Z,79.90
2019-06-26T10:14:16.609Z,76.40
2019-06-26T10:16:46.680Z,73.57
2019-06-26T10:19:16.804Z,71.37
2019-06-26T10:21:47.045Z,66.67
2019-06-26T10:24:17.118Z,81.65
2019-06-26T10:26:47.295Z,81.72
2019-06-26T10:29:17.388Z,82.82
2019-06-26T10:31:47.617Z,82.02
2019-06-26T10:34:17.676Z,86.17
2019-06-26T10:36:47.915Z,77.72
2019-06-26T10:39:18.139Z,83.92
2019-06-26T10:41:48.377Z,86.63
2019-06-26T10:44:18.588Z,82.40
2019-06-26T10:46:48.822Z,87.60
2019-06-26T10:49:26.968Z,91.30
2019-06-26T10:51:49.952Z,93.90
2019-06-26T10:54:19.435Z,95.60
2019-06-26T10:56:49.427Z,78.00
2019-06-26T10:59:19.528Z,76.85
2019-06-26T11:01:49.750Z,84.97
2019-06-26T11:04:19.847Z,76.53
2019-06-26T11:06:50.196Z,74.80
2019-06-26T11:09:20.162Z,78.85
2019-06-26T11:11:50.391Z,78.92
2019-06-26T11:16:49.059Z,75.90
2019-06-26T11:19:18.408Z,78.50
2019-06-26T11:21:47.722Z,83.20
2019-06-26T11:24:17.060Z,80.28
2019-06-26T11:26:46.415Z,77.12
2019-06-26T11:29:15.712Z,82.00
2019-06-26T11:31:45.016Z,80.75
2019-06-26T11:34:14.315Z,76.53
2019-06-26T11:36:43.618Z,77.75
2019-06-26T11:39:12.918Z,73.02
2019-06-26T11:41:42.251Z,83.60
2019-06-26T11:44:11.550Z,70.95
2019-06-26T11:46:40.930Z,68.20
2019-06-26T11:49:10.223Z,67.55
2019-06-26T11:51:39.524Z,64.72
2019-06-26T11:54:10.754Z,65.40
2019-06-26T11:56:40.048Z,66.05
2019-06-26T11:59:09.373Z,68.33
2019-06-26T12:01:38.692Z,63.13
2019-06-26T12:04:08.084Z,62.17
2019-06-26T12:06:37.475Z,51.92
2019-06-26T12:09:08.633Z,55.12
2019-06-26T12:11:37.922Z,52.75
2019-06-26T12:14:07.309Z,47.03
2019-06-26T12:16:36.633Z,53.58
2019-06-26T12:19:06.039Z,47.40
2019-06-26T12:21:35.360Z,38.80
2019-06-26T12:24:04.751Z,33.10
2019-06-26T12:26:34.055Z,43.23
2019-06-26T12:29:03.366Z,48.20
2019-06-26T12:31:32.677Z,31.50
2019-06-26T12:34:02.127Z,38.03
2019-06-26T12:36:31.495Z,31.90
2019-06-26T12:39:00.799Z,33.80
2019-06-26T12:41:31.727Z,32.85
2019-06-26T12:44:01.204Z,28.00
2019-06-26T12:46:30.671Z,30.82
2019-06-26T12:49:00.727Z,29.17
2019-06-26T12:51:30.058Z,31.20
2019-06-26T12:53:59.358Z,32.50
2019-06-26T12:56:28.679Z,31.82
2019-06-26T12:58:59.995Z,35.45
2019-06-26T13:01:29.002Z,30.12
2019-06-26T13:03:58.414Z,30.43
2019-06-26T13:06:27.765Z,25.27
2019-06-26T13:08:59.004Z,31.63
2019-06-26T13:11:28.319Z,31.77
2019-06-26T13:14:02.346Z,31.15
2019-06-26T13:16:29.247Z,29.60
2019-06-26T13:18:58.645Z,24.70
2019-06-26T13:21:28.695Z,22.62
2019-06-26T13:23:58.934Z,31.60
2019-06-26T13:26:29.018Z,29.20
2019-06-26T13:28:59.258Z,30.00
2019-06-26T13:31:29.494Z,26.55
2019-06-26T13:33:59.701Z,26.73
2019-06-26T13:36:29.669Z,24.25
2019-06-26T13:38:59.894Z,21.23
2019-06-26T13:41:29.970Z,27.98
2019-06-26T13:44:00.207Z,23.80
2019-06-26T13:46:30.428Z,25.05
2019-06-26T13:49:00.467Z,21.35
2019-06-26T13:51:30.580Z,23.00
2019-06-26T13:54:00.811Z,26.17
2019-06-26T13:56:30.885Z,23.02
2019-06-26T13:59:01.137Z,23.00
2019-06-26T14:03:59.843Z,25.68
2019-06-26T14:06:31.758Z,20.15
2019-06-26T14:09:01.750Z,17.15
2019-06-26T14:11:32.336Z,24.63
2019-06-26T14:14:02.003Z,23.42
2019-06-26T14:16:32.612Z,17.87
2019-06-26T14:21:30.871Z,22.70
2019-06-26T14:24:00.198Z,15.35
2019-06-26T14:26:29.515Z,17.98
2019-06-26T14:28:58.854Z,14.20
2019-06-26T14:31:28.219Z,16.33
2019-06-26T14:33:57.530Z,21.27
2019-06-26T14:36:26.846Z,17.05
2019-06-26T14:38:56.214Z,19.27
2019-06-26T14:41:25.533Z,23.80
2019-06-26T14:43:54.834Z,14.53
2019-06-26T14:46:24.164Z,16.00
2019-06-26T14:48:53.481Z,13.75
2019-06-26T14:51:22.815Z,13.20
2019-06-26T14:53:52.115Z,15.78
2019-06-26T14:56:21.439Z,14.65
2019-06-26T14:58:50.751Z,15.32
2019-06-26T15:01:20.063Z,13.37
2019-06-26T15:03:49.364Z,11.83
2019-06-26T15:06:18.679Z,12.82
2019-06-26T15:08:47.993Z,15.58
2019-06-26T15:11:17.286Z,16.80
2019-06-26T15:13:46.668Z,12.40
2019-06-26T15:16:16.012Z,16.50
2019-06-26T15:21:14.735Z,16.93
2019-06-26T15:23:44.033Z,12.05
2019-06-26T15:26:13.343Z,13.77
2019-06-26T15:28:42.644Z,14.43
2019-06-26T15:31:12.044Z,15.10
2019-06-26T15:33:41.368Z,13.75
2019-06-26T15:36:10.697Z,12.55
2019-06-26T15:38:40.025Z,19.07
2019-06-26T15:41:09.382Z,12.90
2019-06-26T15:43:39.159Z,14.27
2019-06-26T15:46:08.483Z,15.00
2019-06-26T15:48:37.953Z,12.78
2019-06-26T15:51:08.134Z,15.60
2019-06-26T15:53:38.266Z,14.58
2019-06-26T15:56:08.406Z,10.68
2019-06-26T15:58:38.630Z,13.80
2019-06-26T16:01:08.743Z,14.30
2019-06-26T16:03:38.927Z,12.47
2019-06-26T16:06:09.037Z,12.10
2019-06-26T16:08:39.128Z,12.95
2019-06-26T16:11:09.400Z,14.05
2019-06-26T16:13:39.545Z,15.88
2019-06-26T16:16:09.627Z,11.30
2019-06-26T16:18:43.130Z,12.55
2019-06-26T16:21:12.632Z,15.18
2019-06-26T16:23:41.938Z,17.27
2019-06-26T16:26:11.249Z,14.35
2019-06-26T16:28:40.569Z,11.90
2019-06-26T16:31:10.948Z,12.33
2019-06-26T16:33:40.784Z,11.85
2019-06-26T16:36:10.885Z,14.35
2019-06-26T16:38:40.952Z,13.20
2019-06-26T16:41:11.189Z,16.77
2019-06-26T16:43:41.256Z,12.82
2019-06-26T16:46:11.478Z,14.40
2019-06-26T16:48:41.559Z,13.25
2019-06-26T16:51:11.784Z,14.63
2019-06-26T16:53:42.029Z,17.73
2019-06-26T16:56:12.103Z,12.47
2019-06-26T16:58:42.387Z,15.18
2019-06-26T17:01:12.406Z,16.05
2019-06-26T17:03:42.620Z,14.65
2019-06-26T17:06:12.848Z,15.03
2019-06-26T17:08:42.925Z,13.88
2019-06-26T17:11:13.138Z,15.20
2019-06-26T17:13:43.247Z,15.45
2019-06-26T17:16:13.386Z,15.95
2019-06-26T17:18:43.486Z,11.12
2019-06-26T17:21:13.937Z,15.32
2019-06-26T17:23:43.860Z,9.80
2019-06-26T17:26:14.074Z,13.22
2019-06-26T17:28:44.124Z,13.83
2019-06-26T17:31:14.334Z,11.22
2019-06-26T17:33:44.471Z,9.70
2019-06-26T17:36:14.688Z,9.68
2019-06-26T17:38:44.763Z,12.00
2019-06-26T17:41:14.991Z,14.05
2019-06-26T17:43:45.219Z,13.47
2019-06-26T17:46:15.457Z,14.57
2019-06-26T17:48:45.390Z,12.60
2019-06-26T17:51:15.627Z,11.10
2019-06-26T17:53:45.700Z,20.37
2019-06-26T17:56:15.927Z,15.17
2019-06-26T17:58:46.076Z,17.55
2019-06-26T18:01:16.165Z,13.60
2019-06-26T18:03:46.280Z,13.25
2019-06-26T18:06:16.512Z,12.75
2019-06-26T18:08:46.754Z,12.53
2019-06-26T18:11:16.863Z,14.15
2019-06-26T18:13:47.098Z,11.08
2019-06-26T18:16:17.163Z,12.73
2019-06-26T18:18:47.406Z,17.00
2019-06-26T18:21:17.507Z,16.73
2019-06-26T18:23:47.638Z,11.22
2019-06-26T18:26:17.899Z,18.65
2019-06-26T18:28:47.977Z,12.78
2019-06-26T18:31:18.214Z,16.00
2019-06-26T18:33:48.326Z,14.65
2019-06-26T18:36:18.540Z,13.90
2019-06-26T18:38:48.770Z,12.93
2019-06-26T18:41:18.900Z,14.18
2019-06-26T18:43:49.099Z,14.00
2019-06-26T18:46:19.342Z,18.90
2019-06-26T18:48:50.546Z,15.23
2019-06-26T18:51:19.939Z,12.28
2019-06-26T18:53:53.802Z,15.63
2019-06-26T18:56:20.821Z,17.30
2019-06-26T18:58:50.163Z,10.60
2019-06-26T19:01:20.265Z,11.30
2019-06-26T19:03:50.494Z,18.12
2019-06-26T19:06:20.725Z,15.80
2019-06-26T19:08:50.779Z,15.75
2019-06-26T19:11:21.007Z,18.37
2019-06-26T19:13:51.106Z,15.23
2019-06-26T19:16:21.343Z,15.60
2019-06-26T19:18:51.431Z,11.83
2019-06-26T19:21:21.621Z,10.93
2019-06-26T19:23:51.807Z,14.93
2019-06-26T19:26:21.974Z,17.48
2019-06-26T19:28:52.011Z,25.32
2019-06-26T19:31:23.705Z,12.47
2019-06-26T19:33:53.029Z,15.85
2019-06-26T19:36:25.044Z,11.22
2019-06-26T19:38:54.543Z,13.80
2019-06-26T19:41:23.841Z,17.12
2019-06-26T19:43:53.452Z,12.03
2019-06-26T19:46:23.194Z,12.33
2019-06-26T19:48:53.226Z,14.20
2019-06-26T19:51:23.469Z,10.75
2019-06-26T19:53:53.547Z,14.60
2019-06-26T19:56:23.786Z,18.05
2019-06-26T19:58:53.814Z,16.23
2019-06-26T20:01:24.053Z,14.15
2019-06-26T20:03:54.160Z,14.20
2019-06-26T20:06:24.389Z,12.18
2019-06-26T20:08:57.431Z,11.43
2019-06-26T20:11:25.521Z,11.00
2019-06-26T20:13:54.867Z,9.75
2019-06-26T20:16:24.983Z,11.40
2019-06-26T20:18:55.164Z,11.30
2019-06-26T20:21:25.284Z,11.30
2019-06-26T20:23:55.451Z,9.68
2019-06-26T20:26:25.617Z,11.97
2019-06-26T20:28:55.685Z,13.75
2019-06-26T20:31:26.218Z,10.17
2019-06-26T20:33:56.022Z,7.87
2019-06-26T20:36:26.498Z,11.93
2019-06-26T20:38:56.391Z,15.72
2019-06-26T20:41:26.535Z,9.13
2019-06-26T20:43:56.627Z,14.83
2019-06-26T20:46:26.924Z,12.40
2019-06-26T20:48:57.533Z,7.58
2019-06-26T20:51:27.212Z,21.20
2019-06-26T20:53:57.436Z,9.83
2019-06-26T20:56:27.487Z,10.93
2019-06-26T20:58:57.599Z,8.80
2019-06-26T21:01:29.375Z,10.73
2019-06-26T21:03:58.664Z,9.50
2019-06-26T21:06:29.767Z,11.22
2019-06-26T21:08:59.093Z,10.08
2019-06-26T21:11:30.032Z,13.25
2019-06-26T21:13:59.625Z,13.65
2019-06-26T21:16:28.947Z,12.45
2019-06-26T21:18:58.862Z,12.43
2019-06-26T21:21:29.333Z,8.60
2019-06-26T21:23:59.215Z,10.80
2019-06-26T21:26:29.528Z,9.33
2019-06-26T21:29:00.845Z,11.55
2019-06-26T21:31:30.315Z,7.72
2019-06-26T21:33:59.800Z,7.87
2019-06-26T21:36:30.029Z,11.08
2019-06-26T21:39:00.122Z,9.53
2019-06-26T21:41:30.338Z,9.38
2019-06-26T21:44:00.896Z,11.75
2019-06-26T21:46:31.954Z,9.08
2019-06-26T21:49:01.275Z,7.45
2019-06-26T21:51:30.878Z,17.98
2019-06-26T21:54:01.125Z,7.05
2019-06-26T21:56:48.427Z,8.85
2019-06-26T21:59:35.647Z,12.07
2019-06-26T22:02:22.927Z,9.85
2019-06-26T22:04:53.937Z,12.23
2019-06-26T22:07:27.755Z,19.73
2019-06-26T22:09:58.754Z,12.98
2019-06-26T22:14:58.063Z,11.90
2019-06-26T22:17:27.533Z,11.35
2019-06-26T22:19:56.995Z,10.28
2019-06-26T22:22:26.290Z,14.45
2019-06-26T22:24:55.619Z,13.95
2019-06-26T22:27:24.983Z,10.78
2019-06-26T22:29:54.534Z,12.80
2019-06-26T22:32:23.858Z,14.63
2019-06-26T22:34:53.253Z,12.50
2019-06-26T22:37:22.555Z,18.15
2019-06-26T22:39:51.943Z,9.98
2019-06-26T22:42:21.241Z,12.60
2019-06-26T22:44:50.572Z,13.07
2019-06-26T22:47:19.876Z,13.15
2019-06-26T22:49:49.215Z,14.40
2019-06-26T22:52:18.522Z,8.85
2019-06-26T22:54:47.848Z,14.60
2019-06-26T22:57:17.147Z,12.10
2019-06-26T22:59:46.551Z,18.17
2019-06-26T23:02:15.969Z,14.50
2019-06-26T23:04:46.244Z,10.97
2019-06-26T23:07:15.578Z,9.13
2019-06-26T23:09:45.870Z,12.28
2019-06-26T23:12:15.173Z,12.30
2019-06-26T23:14:44.539Z,12.23
2019-06-26T23:17:13.883Z,11.15
2019-06-26T23:19:43.215Z,11.50
2019-06-26T23:22:12.521Z,12.03
2019-06-26T23:24:41.928Z,16.32
2019-06-26T23:27:11.255Z,9.77
2019-06-26T23:29:40.562Z,17.02
2019-06-26T23:32:09.890Z,12.35
2019-06-26T23:34:39.995Z,15.15
2019-06-26T23:37:09.398Z,13.93
2019-06-26T23:39:38.795Z,15.20
2019-06-26T23:42:08.102Z,13.98
2019-06-26T23:44:37.420Z,14.95
2019-06-26T23:47:06.751Z,18.17
2019-06-26T23:49:36.128Z,14.58
2019-06-26T23:52:05.519Z,8.70
2019-06-26T23:54:35.598Z,9.33
2019-06-26T23:57:05.615Z,14.55
2019-06-26T23:59:35.626Z,14.28
